sensor_id;sensor_type;location;lat;lon;timestamp;P1;durP1;ratioP1;P2;durP2;ratioP2
48685;SDS011;34485;51.536;3.816;2024-02-26T00:01:42;3.27;;;2.87;;
48685;SDS011;34485;51.536;3.816;2024-02-26T00:04:09;4.25;;;3.55;;
48685;SDS011;34485;51.536;3.816;2024-02-26T00:06:35;3.97;;;3.67;;
48685;SDS011;34485;51.536;3.816;2024-02-26T00:09:01;4.40;;;4.00;;
48685;SDS011;34485;51.536;3.816;2024-02-26T00:11:30;4.43;;;4.03;;
48685;SDS011;34485;51.536;3.816;2024-02-26T00:13:56;4.40;;;4.00;;
48685;SDS011;34485;51.536;3.816;2024-02-26T00:16:22;3.83;;;3.53;;
48685;SDS011;34485;51.536;3.816;2024-02-26T00:18:48;4.95;;;4.13;;
48685;SDS011;34485;51.536;3.816;2024-02-26T00:21:14;5.07;;;3.92;;
48685;SDS011;34485;51.536;3.816;2024-02-26T00:23:40;3.30;;;3.00;;
48685;SDS011;34485;51.536;3.816;2024-02-26T00:26:06;6.18;;;3.97;;
48685;SDS011;34485;51.536;3.816;2024-02-26T00:28:32;8.20;;;3.83;;
48685;SDS011;34485;51.536;3.816;2024-02-26T00:30:58;4.72;;;3.70;;
48685;SDS011;34485;51.536;3.816;2024-02-26T00:33:24;4.50;;;4.10;;
48685;SDS011;34485;51.536;3.816;2024-02-26T00:35:50;4.05;;;3.80;;
48685;SDS011;34485;51.536;3.816;2024-02-26T00:38:16;5.18;;;3.53;;
48685;SDS011;34485;51.536;3.816;2024-02-26T00:40:42;3.40;;;3.07;;
48685;SDS011;34485;51.536;3.816;2024-02-26T00:43:08;3.92;;;3.50;;
48685;SDS011;34485;51.536;3.816;2024-02-26T00:45:33;7.00;;;4.30;;
48685;SDS011;34485;51.536;3.816;2024-02-26T00:47:59;5.93;;;3.90;;
48685;SDS011;34485;51.536;3.816;2024-02-26T00:50:29;4.57;;;4.18;;
48685;SDS011;34485;51.536;3.816;2024-02-26T00:52:55;4.55;;;4.18;;
48685;SDS011;34485;51.536;3.816;2024-02-26T00:55:21;4.28;;;3.63;;
48685;SDS011;34485;51.536;3.816;2024-02-26T00:57:46;4.23;;;3.37;;
48685;SDS011;34485;51.536;3.816;2024-02-26T01:00:12;3.38;;;3.17;;
48685;SDS011;34485;51.536;3.816;2024-02-26T01:02:39;4.95;;;3.33;;
48685;SDS011;34485;51.536;3.816;2024-02-26T01:05:06;7.78;;;4.65;;
48685;SDS011;34485;51.536;3.816;2024-02-26T01:07:34;7.38;;;4.35;;
48685;SDS011;34485;51.536;3.816;2024-02-26T01:10:04;4.00;;;3.70;;
48685;SDS011;34485;51.536;3.816;2024-02-26T01:12:31;3.05;;;2.72;;
48685;SDS011;34485;51.536;3.816;2024-02-26T01:14:57;3.30;;;3.05;;
48685;SDS011;34485;51.536;3.816;2024-02-26T01:17:23;4.43;;;3.97;;
48685;SDS011;34485;51.536;3.816;2024-02-26T01:19:49;4.53;;;4.13;;
48685;SDS011;34485;51.536;3.816;2024-02-26T01:22:15;9.05;;;4.80;;
48685;SDS011;34485;51.536;3.816;2024-02-26T01:24:41;4.30;;;3.80;;
48685;SDS011;34485;51.536;3.816;2024-02-26T01:27:07;4.40;;;4.00;;
48685;SDS011;34485;51.536;3.816;2024-02-26T01:29:34;4.72;;;3.60;;
48685;SDS011;34485;51.536;3.816;2024-02-26T01:32:00;4.05;;;3.67;;
48685;SDS011;34485;51.536;3.816;2024-02-26T01:34:26;5.30;;;3.20;;
48685;SDS011;34485;51.536;3.816;2024-02-26T01:36:52;7.00;;;4.20;;
48685;SDS011;34485;51.536;3.816;2024-02-26T01:39:18;4.93;;;3.95;;
48685;SDS011;34485;51.536;3.816;2024-02-26T01:41:44;4.13;;;3.57;;
48685;SDS011;34485;51.536;3.816;2024-02-26T01:44:13;3.15;;;2.83;;
48685;SDS011;34485;51.536;3.816;2024-02-26T01:46:39;3.75;;;3.28;;
48685;SDS011;34485;51.536;3.816;2024-02-26T01:49:06;3.63;;;3.13;;
48685;SDS011;34485;51.536;3.816;2024-02-26T01:51:32;4.15;;;3.85;;
48685;SDS011;34485;51.536;3.816;2024-02-26T01:53:59;4.40;;;3.88;;
48685;SDS011;34485;51.536;3.816;2024-02-26T01:56:26;3.83;;;3.53;;
48685;SDS011;34485;51.536;3.816;2024-02-26T01:58:56;4.00;;;3.38;;
48685;SDS011;34485;51.536;3.816;2024-02-26T02:01:25;4.45;;;4.15;;
48685;SDS011;34485;51.536;3.816;2024-02-26T02:03:51;4.28;;;3.88;;
48685;SDS011;34485;51.536;3.816;2024-02-26T02:06:17;4.35;;;3.95;;
48685;SDS011;34485;51.536;3.816;2024-02-26T02:08:44;3.75;;;3.10;;
48685;SDS011;34485;51.536;3.816;2024-02-26T02:11:10;4.00;;;3.45;;
48685;SDS011;34485;51.536;3.816;2024-02-26T02:13:37;4.28;;;3.67;;
48685;SDS011;34485;51.536;3.816;2024-02-26T02:16:03;7.07;;;3.97;;
48685;SDS011;34485;51.536;3.816;2024-02-26T02:18:29;4.85;;;3.92;;
48685;SDS011;34485;51.536;3.816;2024-02-26T02:20:55;5.38;;;3.55;;
48685;SDS011;34485;51.536;3.816;2024-02-26T02:23:24;7.25;;;3.35;;
48685;SDS011;34485;51.536;3.816;2024-02-26T02:25:50;3.92;;;3.15;;
48685;SDS011;34485;51.536;3.816;2024-02-26T02:28:16;4.25;;;3.83;;
48685;SDS011;34485;51.536;3.816;2024-02-26T02:30:43;7.88;;;3.63;;
48685;SDS011;34485;51.536;3.816;2024-02-26T02:33:09;4.18;;;3.33;;
48685;SDS011;34485;51.536;3.816;2024-02-26T02:35:36;3.67;;;3.47;;
48685;SDS011;34485;51.536;3.816;2024-02-26T02:38:02;3.50;;;3.22;;
48685;SDS011;34485;51.536;3.816;2024-02-26T02:40:29;4.75;;;3.80;;
48685;SDS011;34485;51.536;3.816;2024-02-26T02:42:55;5.25;;;3.78;;
48685;SDS011;34485;51.536;3.816;2024-02-26T02:45:21;4.60;;;3.47;;
48685;SDS011;34485;51.536;3.816;2024-02-26T02:47:47;4.28;;;3.88;;
48685;SDS011;34485;51.536;3.816;2024-02-26T02:50:13;5.88;;;3.85;;
48685;SDS011;34485;51.536;3.816;2024-02-26T02:52:39;5.03;;;4.63;;
48685;SDS011;34485;51.536;3.816;2024-02-26T02:55:05;5.90;;;4.55;;
48685;SDS011;34485;51.536;3.816;2024-02-26T02:57:31;4.68;;;4.20;;
48685;SDS011;34485;51.536;3.816;2024-02-26T02:59:58;4.80;;;4.43;;
48685;SDS011;34485;51.536;3.816;2024-02-26T03:02:24;4.47;;;4.18;;
48685;SDS011;34485;51.536;3.816;2024-02-26T03:04:50;16.75;;;4.43;;
48685;SDS011;34485;51.536;3.816;2024-02-26T03:07:17;6.50;;;4.43;;
48685;SDS011;34485;51.536;3.816;2024-02-26T03:09:43;3.85;;;3.58;;
48685;SDS011;34485;51.536;3.816;2024-02-26T03:12:09;5.40;;;4.85;;
48685;SDS011;34485;51.536;3.816;2024-02-26T03:14:35;4.13;;;3.72;;
48685;SDS011;34485;51.536;3.816;2024-02-26T03:17:01;8.25;;;5.05;;
48685;SDS011;34485;51.536;3.816;2024-02-26T03:19:27;3.30;;;3.10;;
48685;SDS011;34485;51.536;3.816;2024-02-26T03:21:53;4.13;;;3.83;;
48685;SDS011;34485;51.536;3.816;2024-02-26T03:24:19;9.10;;;4.72;;
48685;SDS011;34485;51.536;3.816;2024-02-26T03:26:45;4.75;;;4.35;;
48685;SDS011;34485;51.536;3.816;2024-02-26T03:29:11;3.80;;;3.47;;
48685;SDS011;34485;51.536;3.816;2024-02-26T03:31:37;6.47;;;4.38;;
48685;SDS011;34485;51.536;3.816;2024-02-26T03:34:03;7.10;;;3.75;;
48685;SDS011;34485;51.536;3.816;2024-02-26T03:36:29;3.95;;;3.75;;
48685;SDS011;34485;51.536;3.816;2024-02-26T03:38:55;5.20;;;4.13;;
48685;SDS011;34485;51.536;3.816;2024-02-26T03:41:21;5.47;;;4.95;;
48685;SDS011;34485;51.536;3.816;2024-02-26T03:43:47;4.07;;;3.83;;
48685;SDS011;34485;51.536;3.816;2024-02-26T03:46:13;4.80;;;4.40;;
48685;SDS011;34485;51.536;3.816;2024-02-26T03:48:42;6.30;;;4.50;;
48685;SDS011;34485;51.536;3.816;2024-02-26T03:51:09;8.82;;;4.78;;
48685;SDS011;34485;51.536;3.816;2024-02-26T03:53:35;8.40;;;4.93;;
48685;SDS011;34485;51.536;3.816;2024-02-26T03:56:05;9.63;;;5.43;;
48685;SDS011;34485;51.536;3.816;2024-02-26T03:58:31;10.02;;;4.72;;
48685;SDS011;34485;51.536;3.816;2024-02-26T04:00:58;5.30;;;4.82;;
48685;SDS011;34485;51.536;3.816;2024-02-26T04:03:24;5.00;;;4.53;;
48685;SDS011;34485;51.536;3.816;2024-02-26T04:05:50;6.28;;;4.50;;
48685;SDS011;34485;51.536;3.816;2024-02-26T04:08:16;8.10;;;5.22;;
48685;SDS011;34485;51.536;3.816;2024-02-26T04:10:42;5.35;;;4.43;;
48685;SDS011;34485;51.536;3.816;2024-02-26T04:13:08;9.55;;;4.75;;
48685;SDS011;34485;51.536;3.816;2024-02-26T04:15:35;8.73;;;4.20;;
48685;SDS011;34485;51.536;3.816;2024-02-26T04:18:01;12.32;;;5.80;;
48685;SDS011;34485;51.536;3.816;2024-02-26T04:20:27;10.63;;;6.50;;
48685;SDS011;34485;51.536;3.816;2024-02-26T04:22:53;8.77;;;5.63;;
48685;SDS011;34485;51.536;3.816;2024-02-26T04:25:19;9.02;;;5.55;;
48685;SDS011;34485;51.536;3.816;2024-02-26T04:27:45;10.38;;;5.75;;
48685;SDS011;34485;51.536;3.816;2024-02-26T04:30:11;6.30;;;5.30;;
48685;SDS011;34485;51.536;3.816;2024-02-26T04:32:38;7.68;;;4.78;;
48685;SDS011;34485;51.536;3.816;2024-02-26T04:35:04;5.10;;;4.63;;
48685;SDS011;34485;51.536;3.816;2024-02-26T04:37:30;12.57;;;5.70;;
48685;SDS011;34485;51.536;3.816;2024-02-26T04:39:59;5.18;;;4.50;;
48685;SDS011;34485;51.536;3.816;2024-02-26T04:42:26;7.90;;;4.25;;
48685;SDS011;34485;51.536;3.816;2024-02-26T04:44:52;6.22;;;5.63;;
48685;SDS011;34485;51.536;3.816;2024-02-26T04:47:18;7.38;;;5.25;;
48685;SDS011;34485;51.536;3.816;2024-02-26T04:49:44;8.07;;;5.05;;
48685;SDS011;34485;51.536;3.816;2024-02-26T04:52:10;7.25;;;5.80;;
48685;SDS011;34485;51.536;3.816;2024-02-26T04:54:36;8.15;;;5.80;;
48685;SDS011;34485;51.536;3.816;2024-02-26T04:57:02;5.80;;;5.00;;
48685;SDS011;34485;51.536;3.816;2024-02-26T04:59:28;6.05;;;5.55;;
48685;SDS011;34485;51.536;3.816;2024-02-26T05:01:53;5.03;;;4.53;;
48685;SDS011;34485;51.536;3.816;2024-02-26T05:04:19;4.33;;;3.93;;
48685;SDS011;34485;51.536;3.816;2024-02-26T05:06:45;5.82;;;5.22;;
48685;SDS011;34485;51.536;3.816;2024-02-26T05:09:11;5.57;;;5.07;;
48685;SDS011;34485;51.536;3.816;2024-02-26T05:11:37;9.15;;;5.32;;
48685;SDS011;34485;51.536;3.816;2024-02-26T05:14:03;12.05;;;6.18;;
48685;SDS011;34485;51.536;3.816;2024-02-26T05:16:28;4.80;;;4.40;;
48685;SDS011;34485;51.536;3.816;2024-02-26T05:18:56;5.78;;;4.57;;
48685;SDS011;34485;51.536;3.816;2024-02-26T05:21:22;9.70;;;6.40;;
48685;SDS011;34485;51.536;3.816;2024-02-26T05:23:48;7.70;;;6.03;;
48685;SDS011;34485;51.536;3.816;2024-02-26T05:26:20;6.63;;;5.13;;
48685;SDS011;34485;51.536;3.816;2024-02-26T05:28:46;4.32;;;3.90;;
48685;SDS011;34485;51.536;3.816;2024-02-26T05:31:13;5.88;;;5.38;;
48685;SDS011;34485;51.536;3.816;2024-02-26T05:33:39;11.67;;;4.20;;
48685;SDS011;34485;51.536;3.816;2024-02-26T05:36:04;6.38;;;3.97;;
48685;SDS011;34485;51.536;3.816;2024-02-26T05:38:30;4.13;;;3.80;;
48685;SDS011;34485;51.536;3.816;2024-02-26T05:40:57;10.60;;;4.87;;
48685;SDS011;34485;51.536;3.816;2024-02-26T05:43:26;6.70;;;5.85;;
48685;SDS011;34485;51.536;3.816;2024-02-26T05:45:52;5.18;;;4.75;;
48685;SDS011;34485;51.536;3.816;2024-02-26T05:48:18;4.85;;;4.40;;
48685;SDS011;34485;51.536;3.816;2024-02-26T05:50:45;4.10;;;3.57;;
48685;SDS011;34485;51.536;3.816;2024-02-26T05:53:11;4.40;;;4.00;;
48685;SDS011;34485;51.536;3.816;2024-02-26T05:55:36;4.35;;;3.97;;
48685;SDS011;34485;51.536;3.816;2024-02-26T05:58:02;3.90;;;3.57;;
48685;SDS011;34485;51.536;3.816;2024-02-26T06:00:28;5.13;;;4.60;;
48685;SDS011;34485;51.536;3.816;2024-02-26T06:02:54;5.18;;;4.43;;
48685;SDS011;34485;51.536;3.816;2024-02-26T06:05:20;9.77;;;4.27;;
48685;SDS011;34485;51.536;3.816;2024-02-26T06:07:46;6.78;;;4.38;;
48685;SDS011;34485;51.536;3.816;2024-02-26T06:10:12;5.53;;;4.53;;
48685;SDS011;34485;51.536;3.816;2024-02-26T06:12:38;8.05;;;4.45;;
48685;SDS011;34485;51.536;3.816;2024-02-26T06:15:05;5.43;;;4.38;;
48685;SDS011;34485;51.536;3.816;2024-02-26T06:17:31;4.72;;;4.03;;
48685;SDS011;34485;51.536;3.816;2024-02-26T06:19:57;6.95;;;4.32;;
48685;SDS011;34485;51.536;3.816;2024-02-26T06:22:24;7.88;;;4.43;;
48685;SDS011;34485;51.536;3.816;2024-02-26T06:24:50;4.93;;;4.53;;
48685;SDS011;34485;51.536;3.816;2024-02-26T06:27:16;5.60;;;4.95;;
48685;SDS011;34485;51.536;3.816;2024-02-26T06:29:41;4.93;;;4.53;;
48685;SDS011;34485;51.536;3.816;2024-02-26T06:32:07;8.15;;;4.15;;
48685;SDS011;34485;51.536;3.816;2024-02-26T06:34:33;5.03;;;3.47;;
48685;SDS011;34485;51.536;3.816;2024-02-26T06:36:58;3.70;;;3.40;;
48685;SDS011;34485;51.536;3.816;2024-02-26T06:39:24;3.17;;;2.95;;
48685;SDS011;34485;51.536;3.816;2024-02-26T06:41:50;3.92;;;3.58;;
48685;SDS011;34485;51.536;3.816;2024-02-26T06:44:19;4.90;;;3.67;;
48685;SDS011;34485;51.536;3.816;2024-02-26T06:46:44;4.10;;;3.80;;
48685;SDS011;34485;51.536;3.816;2024-02-26T06:49:10;5.82;;;3.85;;
48685;SDS011;34485;51.536;3.816;2024-02-26T06:51:36;4.40;;;4.00;;
48685;SDS011;34485;51.536;3.816;2024-02-26T06:54:02;4.53;;;4.13;;
48685;SDS011;34485;51.536;3.816;2024-02-26T06:56:28;5.47;;;4.97;;
48685;SDS011;34485;51.536;3.816;2024-02-26T06:58:54;4.40;;;4.00;;
48685;SDS011;34485;51.536;3.816;2024-02-26T07:01:20;4.32;;;3.95;;
48685;SDS011;34485;51.536;3.816;2024-02-26T07:03:46;4.67;;;3.90;;
48685;SDS011;34485;51.536;3.816;2024-02-26T07:06:11;5.05;;;3.97;;
48685;SDS011;34485;51.536;3.816;2024-02-26T07:08:39;7.90;;;5.25;;
48685;SDS011;34485;51.536;3.816;2024-02-26T07:11:07;7.63;;;4.93;;
48685;SDS011;34485;51.536;3.816;2024-02-26T07:13:33;5.63;;;5.13;;
48685;SDS011;34485;51.536;3.816;2024-02-26T07:15:59;7.07;;;4.45;;
48685;SDS011;34485;51.536;3.816;2024-02-26T07:18:25;9.40;;;5.80;;
48685;SDS011;34485;51.536;3.816;2024-02-26T07:20:51;5.55;;;4.63;;
48685;SDS011;34485;51.536;3.816;2024-02-26T07:23:16;8.43;;;5.00;;
48685;SDS011;34485;51.536;3.816;2024-02-26T07:25:42;6.25;;;5.50;;
48685;SDS011;34485;51.536;3.816;2024-02-26T07:28:09;8.35;;;5.03;;
48685;SDS011;34485;51.536;3.816;2024-02-26T07:30:35;6.53;;;5.82;;
48685;SDS011;34485;51.536;3.816;2024-02-26T07:33:01;8.43;;;4.80;;
48685;SDS011;34485;51.536;3.816;2024-02-26T07:35:27;5.93;;;5.13;;
48685;SDS011;34485;51.536;3.816;2024-02-26T07:37:53;6.25;;;4.20;;
48685;SDS011;34485;51.536;3.816;2024-02-26T07:40:18;5.38;;;4.40;;
48685;SDS011;34485;51.536;3.816;2024-02-26T07:42:44;5.88;;;4.88;;
48685;SDS011;34485;51.536;3.816;2024-02-26T07:45:10;6.60;;;4.50;;
48685;SDS011;34485;51.536;3.816;2024-02-26T07:47:35;6.00;;;5.40;;
48685;SDS011;34485;51.536;3.816;2024-02-26T07:50:02;5.18;;;4.75;;
48685;SDS011;34485;51.536;3.816;2024-02-26T07:52:28;5.93;;;5.03;;
48685;SDS011;34485;51.536;3.816;2024-02-26T07:54:54;11.40;;;5.07;;
48685;SDS011;34485;51.536;3.816;2024-02-26T07:57:19;5.33;;;4.83;;
48685;SDS011;34485;51.536;3.816;2024-02-26T07:59:46;7.78;;;5.18;;
48685;SDS011;34485;51.536;3.816;2024-02-26T08:02:14;5.55;;;4.60;;
48685;SDS011;34485;51.536;3.816;2024-02-26T08:04:40;11.98;;;5.63;;
48685;SDS011;34485;51.536;3.816;2024-02-26T08:07:06;8.57;;;5.33;;
48685;SDS011;34485;51.536;3.816;2024-02-26T08:09:32;8.07;;;6.23;;
48685;SDS011;34485;51.536;3.816;2024-02-26T08:11:58;8.10;;;6.30;;
48685;SDS011;34485;51.536;3.816;2024-02-26T08:14:24;6.95;;;6.25;;
48685;SDS011;34485;51.536;3.816;2024-02-26T08:16:50;7.53;;;6.35;;
48685;SDS011;34485;51.536;3.816;2024-02-26T08:19:16;14.80;;;8.35;;
48685;SDS011;34485;51.536;3.816;2024-02-26T08:21:42;8.70;;;6.23;;
48685;SDS011;34485;51.536;3.816;2024-02-26T08:24:08;11.20;;;6.30;;
48685;SDS011;34485;51.536;3.816;2024-02-26T08:26:34;9.23;;;7.20;;
48685;SDS011;34485;51.536;3.816;2024-02-26T08:29:00;8.07;;;6.97;;
48685;SDS011;34485;51.536;3.816;2024-02-26T08:31:26;10.57;;;7.50;;
48685;SDS011;34485;51.536;3.816;2024-02-26T08:33:53;7.78;;;6.65;;
48685;SDS011;34485;51.536;3.816;2024-02-26T08:36:19;16.05;;;7.80;;
48685;SDS011;34485;51.536;3.816;2024-02-26T08:38:45;13.05;;;7.32;;
48685;SDS011;34485;51.536;3.816;2024-02-26T08:41:11;16.05;;;10.00;;
48685;SDS011;34485;51.536;3.816;2024-02-26T08:43:37;16.13;;;10.07;;
48685;SDS011;34485;51.536;3.816;2024-02-26T08:46:03;21.00;;;11.63;;
48685;SDS011;34485;51.536;3.816;2024-02-26T08:48:28;16.37;;;11.77;;
48685;SDS011;34485;51.536;3.816;2024-02-26T08:50:54;14.30;;;10.35;;
48685;SDS011;34485;51.536;3.816;2024-02-26T08:53:20;19.20;;;12.23;;
48685;SDS011;34485;51.536;3.816;2024-02-26T08:55:46;17.83;;;10.02;;
48685;SDS011;34485;51.536;3.816;2024-02-26T08:58:11;17.10;;;11.50;;
48685;SDS011;34485;51.536;3.816;2024-02-26T09:00:37;18.25;;;10.35;;
48685;SDS011;34485;51.536;3.816;2024-02-26T09:03:03;16.07;;;11.13;;
48685;SDS011;34485;51.536;3.816;2024-02-26T09:05:29;19.00;;;10.10;;
48685;SDS011;34485;51.536;3.816;2024-02-26T09:07:54;18.35;;;10.93;;
48685;SDS011;34485;51.536;3.816;2024-02-26T09:10:20;22.58;;;10.35;;
48685;SDS011;34485;51.536;3.816;2024-02-26T09:12:46;15.80;;;10.98;;
48685;SDS011;34485;51.536;3.816;2024-02-26T09:15:12;14.07;;;9.90;;
48685;SDS011;34485;51.536;3.816;2024-02-26T09:17:38;11.75;;;9.35;;
48685;SDS011;34485;51.536;3.816;2024-02-26T09:20:03;17.43;;;10.77;;
48685;SDS011;34485;51.536;3.816;2024-02-26T09:22:30;19.83;;;11.40;;
48685;SDS011;34485;51.536;3.816;2024-02-26T09:24:56;14.57;;;9.88;;
48685;SDS011;34485;51.536;3.816;2024-02-26T09:27:22;10.13;;;8.63;;
48685;SDS011;34485;51.536;3.816;2024-02-26T09:29:48;12.70;;;8.68;;
48685;SDS011;34485;51.536;3.816;2024-02-26T09:32:14;12.87;;;9.23;;
48685;SDS011;34485;51.536;3.816;2024-02-26T09:34:40;11.68;;;9.30;;
48685;SDS011;34485;51.536;3.816;2024-02-26T09:37:06;11.13;;;8.48;;
48685;SDS011;34485;51.536;3.816;2024-02-26T09:39:32;15.03;;;10.00;;
48685;SDS011;34485;51.536;3.816;2024-02-26T09:41:57;12.95;;;9.07;;
48685;SDS011;34485;51.536;3.816;2024-02-26T09:44:24;11.10;;;8.50;;
48685;SDS011;34485;51.536;3.816;2024-02-26T09:46:51;14.27;;;7.38;;
48685;SDS011;34485;51.536;3.816;2024-02-26T09:49:20;10.25;;;7.32;;
48685;SDS011;34485;51.536;3.816;2024-02-26T09:51:49;13.77;;;8.85;;
48685;SDS011;34485;51.536;3.816;2024-02-26T09:54:15;10.48;;;7.60;;
48685;SDS011;34485;51.536;3.816;2024-02-26T09:56:41;8.48;;;7.55;;
48685;SDS011;34485;51.536;3.816;2024-02-26T09:59:10;7.20;;;5.97;;
48685;SDS011;34485;51.536;3.816;2024-02-26T10:01:40;8.70;;;6.75;;
48685;SDS011;34485;51.536;3.816;2024-02-26T10:04:07;9.90;;;7.13;;
48685;SDS011;34485;51.536;3.816;2024-02-26T10:06:35;11.23;;;7.45;;
48685;SDS011;34485;51.536;3.816;2024-02-26T10:09:02;7.70;;;6.75;;
48685;SDS011;34485;51.536;3.816;2024-02-26T10:11:31;8.10;;;6.47;;
48685;SDS011;34485;51.536;3.816;2024-02-26T10:13:57;8.55;;;6.05;;
48685;SDS011;34485;51.536;3.816;2024-02-26T10:16:24;8.33;;;6.63;;
48685;SDS011;34485;51.536;3.816;2024-02-26T10:18:53;7.00;;;6.28;;
48685;SDS011;34485;51.536;3.816;2024-02-26T10:21:22;6.43;;;5.68;;
48685;SDS011;34485;51.536;3.816;2024-02-26T10:23:48;10.60;;;5.60;;
48685;SDS011;34485;51.536;3.816;2024-02-26T10:26:15;10.00;;;5.38;;
48685;SDS011;34485;51.536;3.816;2024-02-26T10:28:41;7.03;;;6.30;;
48685;SDS011;34485;51.536;3.816;2024-02-26T10:31:08;7.32;;;6.25;;
48685;SDS011;34485;51.536;3.816;2024-02-26T10:33:35;7.80;;;6.45;;
48685;SDS011;34485;51.536;3.816;2024-02-26T10:36:05;5.45;;;5.05;;
48685;SDS011;34485;51.536;3.816;2024-02-26T10:38:32;6.32;;;5.60;;
48685;SDS011;34485;51.536;3.816;2024-02-26T10:40:59;6.00;;;5.40;;
48685;SDS011;34485;51.536;3.816;2024-02-26T10:43:25;5.68;;;5.18;;
48685;SDS011;34485;51.536;3.816;2024-02-26T10:45:50;8.35;;;6.13;;
48685;SDS011;34485;51.536;3.816;2024-02-26T10:48:16;5.57;;;5.13;;
48685;SDS011;34485;51.536;3.816;2024-02-26T10:50:43;5.70;;;4.15;;
48685;SDS011;34485;51.536;3.816;2024-02-26T10:53:16;5.03;;;4.47;;
48685;SDS011;34485;51.536;3.816;2024-02-26T10:55:47;5.13;;;4.63;;
48685;SDS011;34485;51.536;3.816;2024-02-26T10:58:19;4.72;;;4.32;;
48685;SDS011;34485;51.536;3.816;2024-02-26T11:00:46;4.88;;;4.28;;
48685;SDS011;34485;51.536;3.816;2024-02-26T11:03:14;5.88;;;5.38;;
48685;SDS011;34485;51.536;3.816;2024-02-26T11:05:42;5.70;;;4.77;;
48685;SDS011;34485;51.536;3.816;2024-02-26T11:08:10;9.38;;;4.60;;
48685;SDS011;34485;51.536;3.816;2024-02-26T11:10:36;5.78;;;4.55;;
48685;SDS011;34485;51.536;3.816;2024-02-26T11:13:03;5.00;;;4.60;;
48685;SDS011;34485;51.536;3.816;2024-02-26T11:15:31;5.72;;;5.22;;
48685;SDS011;34485;51.536;3.816;2024-02-26T11:17:58;5.73;;;4.70;;
48685;SDS011;34485;51.536;3.816;2024-02-26T11:20:25;7.45;;;4.38;;
48685;SDS011;34485;51.536;3.816;2024-02-26T11:22:54;5.75;;;4.82;;
48685;SDS011;34485;51.536;3.816;2024-02-26T11:25:20;5.90;;;4.38;;
48685;SDS011;34485;51.536;3.816;2024-02-26T11:27:49;5.10;;;4.07;;
48685;SDS011;34485;51.536;3.816;2024-02-26T11:30:17;5.10;;;4.37;;
48685;SDS011;34485;51.536;3.816;2024-02-26T11:32:44;4.25;;;3.78;;
48685;SDS011;34485;51.536;3.816;2024-02-26T11:35:14;9.32;;;4.50;;
48685;SDS011;34485;51.536;3.816;2024-02-26T11:37:50;3.45;;;2.88;;
48685;SDS011;34485;51.536;3.816;2024-02-26T11:40:21;4.80;;;3.75;;
48685;SDS011;34485;51.536;3.816;2024-02-26T11:42:53;5.83;;;3.30;;
48685;SDS011;34485;51.536;3.816;2024-02-26T11:48:12;4.82;;;4.20;;
48685;SDS011;34485;51.536;3.816;2024-02-26T11:50:41;3.58;;;3.35;;
48685;SDS011;34485;51.536;3.816;2024-02-26T11:53:28;5.50;;;3.38;;
48685;SDS011;34485;51.536;3.816;2024-02-26T11:58:57;4.35;;;4.05;;
48685;SDS011;34485;51.536;3.816;2024-02-26T12:01:57;3.45;;;3.20;;
48685;SDS011;34485;51.536;3.816;2024-02-26T12:04:25;3.08;;;2.88;;
48685;SDS011;34485;51.536;3.816;2024-02-26T12:06:55;5.35;;;3.65;;
48685;SDS011;34485;51.536;3.816;2024-02-26T12:09:41;5.33;;;3.77;;
48685;SDS011;34485;51.536;3.816;2024-02-26T12:14:38;4.05;;;3.75;;
48685;SDS011;34485;51.536;3.816;2024-02-26T12:17:04;2.88;;;2.67;;
48685;SDS011;34485;51.536;3.816;2024-02-26T12:19:33;3.05;;;2.85;;
48685;SDS011;34485;51.536;3.816;2024-02-26T12:22:00;8.30;;;3.20;;
48685;SDS011;34485;51.536;3.816;2024-02-26T12:24:26;5.05;;;3.45;;
48685;SDS011;34485;51.536;3.816;2024-02-26T12:26:51;4.43;;;4.03;;
48685;SDS011;34485;51.536;3.816;2024-02-26T12:29:17;3.40;;;3.20;;
48685;SDS011;34485;51.536;3.816;2024-02-26T12:31:43;3.30;;;3.10;;
48685;SDS011;34485;51.536;3.816;2024-02-26T12:34:09;6.05;;;2.70;;
48685;SDS011;34485;51.536;3.816;2024-02-26T12:36:35;5.35;;;3.80;;
48685;SDS011;34485;51.536;3.816;2024-02-26T12:39:04;5.07;;;3.13;;
48685;SDS011;34485;51.536;3.816;2024-02-26T12:41:31;3.67;;;2.83;;
48685;SDS011;34485;51.536;3.816;2024-02-26T12:43:58;3.42;;;3.22;;
48685;SDS011;34485;51.536;3.816;2024-02-26T12:46:24;5.93;;;3.40;;
48685;SDS011;34485;51.536;3.816;2024-02-26T12:48:49;6.57;;;4.50;;
48685;SDS011;34485;51.536;3.816;2024-02-26T12:51:15;5.25;;;4.25;;
48685;SDS011;34485;51.536;3.816;2024-02-26T12:53:43;3.95;;;3.65;;
48685;SDS011;34485;51.536;3.816;2024-02-26T12:56:09;4.90;;;4.43;;
48685;SDS011;34485;51.536;3.816;2024-02-26T12:58:37;7.53;;;4.82;;
48685;SDS011;34485;51.536;3.816;2024-02-26T13:01:05;3.75;;;3.45;;
48685;SDS011;34485;51.536;3.816;2024-02-26T13:03:35;5.35;;;4.85;;
48685;SDS011;34485;51.536;3.816;2024-02-26T13:06:02;4.75;;;3.97;;
48685;SDS011;34485;51.536;3.816;2024-02-26T13:08:29;6.30;;;3.13;;
48685;SDS011;34485;51.536;3.816;2024-02-26T13:10:55;4.65;;;3.65;;
48685;SDS011;34485;51.536;3.816;2024-02-26T13:13:22;3.63;;;3.33;;
48685;SDS011;34485;51.536;3.816;2024-02-26T13:15:48;3.28;;;2.95;;
48685;SDS011;34485;51.536;3.816;2024-02-26T13:18:14;3.20;;;2.60;;
48685;SDS011;34485;51.536;3.816;2024-02-26T13:20:40;4.40;;;4.00;;
48685;SDS011;34485;51.536;3.816;2024-02-26T13:23:08;4.80;;;3.03;;
48685;SDS011;34485;51.536;3.816;2024-02-26T13:25:35;3.60;;;3.30;;
48685;SDS011;34485;51.536;3.816;2024-02-26T13:28:17;5.38;;;4.00;;
48685;SDS011;34485;51.536;3.816;2024-02-26T13:30:54;4.50;;;4.10;;
48685;SDS011;34485;51.536;3.816;2024-02-26T13:33:25;3.75;;;3.45;;
48685;SDS011;34485;51.536;3.816;2024-02-26T13:35:51;3.30;;;3.00;;
48685;SDS011;34485;51.536;3.816;2024-02-26T13:38:18;3.90;;;3.58;;
48685;SDS011;34485;51.536;3.816;2024-02-26T13:40:44;4.50;;;4.10;;
48685;SDS011;34485;51.536;3.816;2024-02-26T13:43:10;4.43;;;4.03;;
48685;SDS011;34485;51.536;3.816;2024-02-26T13:45:36;4.57;;;4.18;;
48685;SDS011;34485;51.536;3.816;2024-02-26T13:48:03;5.47;;;4.38;;
48685;SDS011;34485;51.536;3.816;2024-02-26T13:50:29;5.13;;;4.63;;
48685;SDS011;34485;51.536;3.816;2024-02-26T13:52:56;4.60;;;3.33;;
48685;SDS011;34485;51.536;3.816;2024-02-26T13:55:23;3.88;;;3.33;;
48685;SDS011;34485;51.536;3.816;2024-02-26T13:57:51;4.32;;;4.03;;
48685;SDS011;34485;51.536;3.816;2024-02-26T14:00:19;8.27;;;4.05;;
48685;SDS011;34485;51.536;3.816;2024-02-26T14:02:45;6.07;;;4.05;;
48685;SDS011;34485;51.536;3.816;2024-02-26T14:05:11;4.15;;;3.80;;
48685;SDS011;34485;51.536;3.816;2024-02-26T14:07:37;4.00;;;3.70;;
48685;SDS011;34485;51.536;3.816;2024-02-26T14:10:03;4.28;;;3.88;;
48685;SDS011;34485;51.536;3.816;2024-02-26T14:12:30;5.88;;;5.28;;
48685;SDS011;34485;51.536;3.816;2024-02-26T14:14:56;3.97;;;3.65;;
48685;SDS011;34485;51.536;3.816;2024-02-26T14:17:25;5.65;;;3.95;;
48685;SDS011;34485;51.536;3.816;2024-02-26T14:19:51;5.30;;;4.80;;
48685;SDS011;34485;51.536;3.816;2024-02-26T14:22:17;5.30;;;4.47;;
48685;SDS011;34485;51.536;3.816;2024-02-26T14:24:43;6.35;;;3.55;;
48685;SDS011;34485;51.536;3.816;2024-02-26T14:27:09;4.05;;;3.75;;
48685;SDS011;34485;51.536;3.816;2024-02-26T14:29:37;10.20;;;3.50;;
48685;SDS011;34485;51.536;3.816;2024-02-26T14:32:05;9.32;;;4.65;;
48685;SDS011;34485;51.536;3.816;2024-02-26T14:34:31;4.95;;;4.55;;
48685;SDS011;34485;51.536;3.816;2024-02-26T14:36:57;3.35;;;3.05;;
48685;SDS011;34485;51.536;3.816;2024-02-26T14:39:23;5.07;;;4.22;;
48685;SDS011;34485;51.536;3.816;2024-02-26T14:41:49;4.70;;;3.73;;
48685;SDS011;34485;51.536;3.816;2024-02-26T14:44:15;3.90;;;3.42;;
48685;SDS011;34485;51.536;3.816;2024-02-26T14:46:41;4.78;;;2.90;;
48685;SDS011;34485;51.536;3.816;2024-02-26T14:49:07;3.50;;;3.20;;
48685;SDS011;34485;51.536;3.816;2024-02-26T14:51:33;3.75;;;3.17;;